createdAt,value
2023-05-12T00:01:31.763Z,4.43
2023-05-12T00:04:00.506Z,4.30
2023-05-12T00:06:29.352Z,4.77
2023-05-12T00:08:59.293Z,4.47
2023-05-12T00:11:27.794Z,4.53
2023-05-12T00:13:56.529Z,4.80
2023-05-12T00:16:25.062Z,5.50
2023-05-12T00:18:53.608Z,4.93
2023-05-12T00:21:22.309Z,4.80
2023-05-12T00:23:50.860Z,4.83
2023-05-12T00:26:21.042Z,4.80
2023-05-12T00:28:49.502Z,4.27
2023-05-12T00:31:18.490Z,4.50
2023-05-12T00:33:47.213Z,4.90
2023-05-12T00:36:15.667Z,4.70
2023-05-12T00:38:44.297Z,4.33
2023-05-12T00:41:12.756Z,5.17
2023-05-12T00:43:42.655Z,4.80
2023-05-12T00:46:11.504Z,4.73
2023-05-12T00:48:40.136Z,4.47
2023-05-12T00:51:08.819Z,4.77
2023-05-12T00:53:48.137Z,5.20
2023-05-12T00:56:19.101Z,5.03
2023-05-12T00:58:49.217Z,4.87
2023-05-12T01:01:17.885Z,4.57
2023-05-12T01:03:47.128Z,4.73
2023-05-12T01:06:17.785Z,4.80
2023-05-12T01:08:47.204Z,4.70
2023-05-12T01:11:15.760Z,4.83
2023-05-12T01:13:44.358Z,4.63
2023-05-12T01:16:15.448Z,4.73
2023-05-12T01:18:49.491Z,4.50
2023-05-12T01:21:18.897Z,4.60
2023-05-12T01:23:50.762Z,5.27
2023-05-12T01:26:20.905Z,5.03
2023-05-12T01:28:50.095Z,5.30
2023-05-12T01:31:21.114Z,4.77
2023-05-12T01:33:51.538Z,4.80
2023-05-12T01:36:20.017Z,4.73
2023-05-12T01:38:48.519Z,4.60
2023-05-12T01:41:17.056Z,5.47
2023-05-12T01:43:46.990Z,5.03
2023-05-12T01:46:15.805Z,4.67
2023-05-12T01:48:44.865Z,4.57
2023-05-12T01:51:13.319Z,4.87
2023-05-12T01:53:42.284Z,4.77
2023-05-12T01:56:10.854Z,4.80
2023-05-12T01:58:39.336Z,4.63
2023-05-12T02:01:09.197Z,4.63
2023-05-12T02:03:38.135Z,4.83
2023-05-12T02:06:07.052Z,5.30
2023-05-12T02:08:36.156Z,4.80
2023-05-12T02:11:08.136Z,5.00
2023-05-12T02:13:36.909Z,4.90
2023-05-12T02:16:05.610Z,4.87
2023-05-12T02:18:35.666Z,5.23
2023-05-12T02:21:04.342Z,5.00
2023-05-12T02:23:35.157Z,5.23
2023-05-12T02:26:03.798Z,5.37
2023-05-12T02:28:32.267Z,5.33
2023-05-12T02:31:00.765Z,5.70
2023-05-12T02:33:30.135Z,5.83
2023-05-12T02:36:00.077Z,5.43
2023-05-12T02:38:28.652Z,5.23
2023-05-12T02:40:57.307Z,5.17
2023-05-12T02:43:25.745Z,5.50
2023-05-12T02:45:56.304Z,5.60
2023-05-12T02:48:24.925Z,6.13
2023-05-12T02:50:53.380Z,6.40
2023-05-12T02:53:23.262Z,5.87
2023-05-12T02:55:51.847Z,6.37
2023-05-12T02:58:20.584Z,6.10
2023-05-12T03:00:56.886Z,5.57
2023-05-12T03:03:32.162Z,6.70
2023-05-12T03:06:00.863Z,5.43
2023-05-12T03:08:30.754Z,5.43
2023-05-12T03:10:59.323Z,5.53
2023-05-12T03:13:27.915Z,6.00
2023-05-12T03:15:57.186Z,6.57
2023-05-12T03:18:25.667Z,5.80
2023-05-12T03:20:54.278Z,5.70
2023-05-12T03:23:22.758Z,5.73
2023-05-12T03:25:52.868Z,5.20
2023-05-12T03:28:23.033Z,7.97
2023-05-12T03:30:51.493Z,7.80
2023-05-12T03:33:19.944Z,7.23
2023-05-12T03:35:48.631Z,7.77
2023-05-12T03:38:17.160Z,8.23
2023-05-12T03:40:45.926Z,7.37
2023-05-12T03:43:15.875Z,6.97
2023-05-12T03:45:44.415Z,6.13
2023-05-12T03:48:12.914Z,6.50
2023-05-12T03:50:41.588Z,6.70
2023-05-12T03:53:10.065Z,6.73
2023-05-12T03:55:38.721Z,7.23
2023-05-12T03:58:07.467Z,7.57
2023-05-12T04:00:37.340Z,7.20
2023-05-12T04:03:05.924Z,8.10
2023-05-12T04:05:35.113Z,7.67
2023-05-12T04:08:03.838Z,7.77
2023-05-12T04:10:32.321Z,7.83
2023-05-12T04:13:00.869Z,8.33
2023-05-12T04:15:29.770Z,7.20
2023-05-12T04:18:02.331Z,7.97
2023-05-12T04:20:31.060Z,7.53
2023-05-12T04:22:59.590Z,6.43
2023-05-12T04:25:28.036Z,7.30
2023-05-12T04:27:56.650Z,7.23
2023-05-12T04:30:25.111Z,7.53
2023-05-12T04:32:53.626Z,7.03
2023-05-12T04:35:23.697Z,7.27
2023-05-12T04:37:52.148Z,7.37
2023-05-12T04:40:21.115Z,8.03
2023-05-12T04:42:49.910Z,8.50
2023-05-12T04:45:18.600Z,8.83
2023-05-12T04:47:47.231Z,8.53
2023-05-12T04:50:15.858Z,7.77
2023-05-12T04:52:45.694Z,7.80
2023-05-12T04:55:14.158Z,8.40
2023-05-12T04:57:42.794Z,8.70
2023-05-12T05:00:11.876Z,8.17
2023-05-12T05:02:41.404Z,8.23
2023-05-12T05:05:10.326Z,9.17
2023-05-12T05:07:38.780Z,8.37
2023-05-12T05:10:09.574Z,8.47
2023-05-12T05:12:38.140Z,8.10
2023-05-12T05:15:07.561Z,8.67
2023-05-12T05:17:36.084Z,8.03
2023-05-12T05:20:09.764Z,7.67
2023-05-12T05:22:40.904Z,7.73
2023-05-12T05:25:11.929Z,7.80
2023-05-12T05:27:40.442Z,7.90
2023-05-12T05:30:10.203Z,7.30
2023-05-12T05:32:40.520Z,7.10
2023-05-12T05:35:09.193Z,6.97
2023-05-12T05:37:37.661Z,7.10
2023-05-12T05:40:06.544Z,7.80
2023-05-12T05:42:36.458Z,7.07
2023-05-12T05:45:05.033Z,6.30
2023-05-12T05:47:34.453Z,6.40
2023-05-12T05:50:03.047Z,6.60
2023-05-12T05:52:31.530Z,6.90
2023-05-12T05:55:02.744Z,7.00
2023-05-12T05:57:31.251Z,6.57
2023-05-12T06:00:01.215Z,6.60
2023-05-12T06:02:30.150Z,6.67
2023-05-12T06:05:00.111Z,6.43
2023-05-12T06:07:28.631Z,6.13
2023-05-12T06:09:57.249Z,6.30
2023-05-12T06:12:25.853Z,6.00
2023-05-12T06:14:54.347Z,6.27
2023-05-12T06:17:24.411Z,5.23
2023-05-12T06:19:53.097Z,4.90
2023-05-12T06:22:21.578Z,5.03
2023-05-12T06:24:50.138Z,4.60
2023-05-12T06:27:18.716Z,4.93
2023-05-12T06:29:47.171Z,5.00
2023-05-12T06:32:15.670Z,4.87
2023-05-12T06:34:45.742Z,5.10
2023-05-12T06:37:14.243Z,5.07
2023-05-12T06:39:42.754Z,5.67
2023-05-12T06:42:11.558Z,5.77
2023-05-12T06:44:42.104Z,5.43
2023-05-12T06:47:11.030Z,5.13
2023-05-12T06:49:39.588Z,5.30
2023-05-12T06:52:09.695Z,5.40
2023-05-12T06:54:38.458Z,5.23
2023-05-12T06:57:07.213Z,5.57
2023-05-12T06:59:35.914Z,5.40
2023-05-12T07:02:04.553Z,5.03
2023-05-12T07:04:33.358Z,5.47
2023-05-12T07:07:01.819Z,5.70
2023-05-12T07:09:31.674Z,5.63
2023-05-12T07:12:00.810Z,5.27
2023-05-12T07:14:29.365Z,5.60
2023-05-12T07:16:58.002Z,5.67
2023-05-12T07:19:26.524Z,4.60
2023-05-12T07:21:54.975Z,5.47
2023-05-12T07:24:23.503Z,5.30
2023-05-12T07:26:53.417Z,5.20
2023-05-12T07:29:22.530Z,5.07
2023-05-12T07:31:51.297Z,5.03
2023-05-12T07:34:19.935Z,4.80
2023-05-12T07:36:48.399Z,5.27
2023-05-12T07:39:19.441Z,5.30
2023-05-12T07:41:48.026Z,4.63
2023-05-12T07:44:17.907Z,4.70
2023-05-12T07:46:46.626Z,5.00
2023-05-12T07:49:15.273Z,4.80
2023-05-12T07:51:44.097Z,5.23
2023-05-12T07:54:13.496Z,4.50
2023-05-12T07:56:41.955Z,4.53
2023-05-12T07:59:10.927Z,4.60
2023-05-12T08:01:40.881Z,5.00
2023-05-12T08:04:09.505Z,4.30
2023-05-12T08:06:38.369Z,4.50
2023-05-12T08:09:07.769Z,4.27
2023-05-12T08:11:36.237Z,4.53
2023-05-12T08:14:04.810Z,4.40
2023-05-12T08:16:33.396Z,4.50
2023-05-12T08:19:03.451Z,4.10
2023-05-12T08:21:32.692Z,4.50
2023-05-12T08:24:01.159Z,4.30
2023-05-12T08:26:32.627Z,4.33
2023-05-12T08:29:01.620Z,4.10
2023-05-12T08:31:30.181Z,4.43
2023-05-12T08:34:08.945Z,4.50
2023-05-12T08:36:40.370Z,4.10
2023-05-12T08:39:10.449Z,4.10
2023-05-12T08:41:43.267Z,4.93
2023-05-12T08:44:12.787Z,4.00
2023-05-12T08:46:41.424Z,3.90
2023-05-12T08:49:15.754Z,4.47
2023-05-12T08:51:54.394Z,4.20
2023-05-12T08:54:25.921Z,4.33
2023-05-12T08:59:26.687Z,4.40
2023-05-12T09:01:56.159Z,4.23
2023-05-12T09:04:24.871Z,3.77
2023-05-12T09:06:56.025Z,4.30
2023-05-12T09:09:25.570Z,4.10
2023-05-12T09:11:54.330Z,4.20
2023-05-12T09:14:28.302Z,4.00
2023-05-12T09:17:00.763Z,3.70
2023-05-12T09:19:29.906Z,3.80
2023-05-12T09:22:00.083Z,3.80
2023-05-12T09:24:38.070Z,4.10
2023-05-12T09:27:07.234Z,4.00
2023-05-12T09:29:42.496Z,3.67
2023-05-12T09:32:16.759Z,3.70
2023-05-12T09:34:45.700Z,3.80
2023-05-12T09:37:16.332Z,3.90
2023-05-12T09:39:45.992Z,3.60
2023-05-12T09:42:15.767Z,3.77
2023-05-12T09:44:44.338Z,3.80
2023-05-12T09:47:15.522Z,4.17
2023-05-12T09:49:49.244Z,4.00
2023-05-12T09:52:22.685Z,4.17
2023-05-12T09:54:52.684Z,4.03
2023-05-12T09:57:23.010Z,4.10
2023-05-12T09:59:52.357Z,4.03
2023-05-12T10:02:21.064Z,3.87
2023-05-12T10:04:52.281Z,3.70
2023-05-12T10:07:24.135Z,3.57
2023-05-12T10:09:53.099Z,3.80
2023-05-12T10:12:21.588Z,3.50
2023-05-12T10:14:50.499Z,3.97
2023-05-12T10:17:20.807Z,3.90
2023-05-12T10:19:49.509Z,3.60
2023-05-12T10:22:19.068Z,4.27
2023-05-12T10:24:49.118Z,4.03
2023-05-12T10:27:18.274Z,4.03
2023-05-12T10:29:48.213Z,3.60
2023-05-12T10:32:17.431Z,3.40
2023-05-12T10:34:46.628Z,3.28
2023-05-12T10:37:15.105Z,2.70
2023-05-12T10:39:50.232Z,2.97
2023-05-12T10:42:19.192Z,3.30
2023-05-12T10:44:52.211Z,3.13
2023-05-12T10:47:20.686Z,3.10
2023-05-12T10:49:49.141Z,3.30
2023-05-12T10:52:21.616Z,3.35
2023-05-12T10:54:51.772Z,2.93
2023-05-12T10:57:22.051Z,3.28
2023-05-12T10:59:52.143Z,3.30
2023-05-12T11:02:22.949Z,3.25
2023-05-12T11:04:53.231Z,3.30
2023-05-12T11:07:24.258Z,3.00
2023-05-12T11:09:59.037Z,3.10
2023-05-12T11:12:28.562Z,3.20
2023-05-12T11:14:57.159Z,3.60
2023-05-12T11:17:25.874Z,3.25
2023-05-12T11:19:55.190Z,3.40
2023-05-12T11:22:24.518Z,3.38
2023-05-12T11:24:54.452Z,3.63
2023-05-12T11:27:23.813Z,3.50
2023-05-12T11:29:59.140Z,3.15
2023-05-12T11:32:27.813Z,3.78
2023-05-12T11:34:56.341Z,3.30
2023-05-12T11:37:25.043Z,3.10
2023-05-12T11:39:54.924Z,3.13
2023-05-12T11:42:25.740Z,2.85
2023-05-12T11:44:55.617Z,3.05
2023-05-12T11:47:24.268Z,3.35
2023-05-12T11:49:53.396Z,3.08
2023-05-12T11:52:23.310Z,3.17
2023-05-12T11:54:52.311Z,3.47
2023-05-12T11:57:28.607Z,3.42
2023-05-12T12:00:00.939Z,3.40
2023-05-12T12:02:30.100Z,3.45
2023-05-12T12:04:58.905Z,3.87
2023-05-12T12:07:31.776Z,3.30
2023-05-12T12:10:01.002Z,3.10
2023-05-12T12:12:31.061Z,3.33
2023-05-12T12:15:00.369Z,3.10
2023-05-12T12:17:31.353Z,3.20
2023-05-12T12:19:59.997Z,3.20
2023-05-12T12:22:32.600Z,3.33
2023-05-12T12:25:01.223Z,3.50
2023-05-12T12:27:31.065Z,3.40
2023-05-12T12:29:59.584Z,3.40
2023-05-12T12:32:29.155Z,3.53
2023-05-12T12:34:59.646Z,3.30
2023-05-12T12:37:28.123Z,3.38
2023-05-12T12:39:56.754Z,3.50
2023-05-12T12:42:25.367Z,3.50
2023-05-12T12:44:55.207Z,3.60
2023-05-12T12:47:24.494Z,3.37
2023-05-12T12:49:52.993Z,3.30
2023-05-12T12:52:21.451Z,3.25
2023-05-12T12:54:50.092Z,3.13
2023-05-12T12:57:19.791Z,3.10
2023-05-12T12:59:48.253Z,3.10
2023-05-12T13:02:18.218Z,2.85
2023-05-12T13:04:46.737Z,3.28
2023-05-12T13:07:15.294Z,3.53
2023-05-12T13:09:43.864Z,2.70
2023-05-12T13:12:12.740Z,3.08
2023-05-12T13:14:41.199Z,3.15
2023-05-12T13:17:09.869Z,3.40
2023-05-12T13:19:40.030Z,3.33
2023-05-12T13:22:08.530Z,3.08
2023-05-12T13:24:37.498Z,2.97
2023-05-12T13:27:08.432Z,2.80
2023-05-12T13:29:37.202Z,3.17
2023-05-12T13:32:05.921Z,3.13
2023-05-12T13:34:34.567Z,2.78
2023-05-12T13:37:04.415Z,2.80
2023-05-12T13:39:32.935Z,2.95
2023-05-12T13:42:01.390Z,3.10
2023-05-12T13:44:29.887Z,3.03
2023-05-12T13:46:58.544Z,2.90
2023-05-12T13:49:27.024Z,2.97
2023-05-12T13:51:55.481Z,2.90
2023-05-12T13:54:25.428Z,2.97
2023-05-12T13:56:53.927Z,2.85
2023-05-12T13:59:22.394Z,2.85
2023-05-12T14:01:50.941Z,3.10
2023-05-12T14:04:19.462Z,2.88
2023-05-12T14:06:48.220Z,3.60
2023-05-12T14:09:16.793Z,3.58
2023-05-12T14:11:46.644Z,3.50
2023-05-12T14:14:15.296Z,3.30
2023-05-12T14:16:44.013Z,3.22
2023-05-12T14:19:12.528Z,3.05
2023-05-12T14:21:42.865Z,2.80
2023-05-12T14:24:12.915Z,2.90
2023-05-12T14:26:41.367Z,3.00
2023-05-12T14:29:11.222Z,3.30
2023-05-12T14:31:40.380Z,3.20
2023-05-12T14:34:09.369Z,3.42
2023-05-12T14:36:37.862Z,3.42
2023-05-12T14:39:08.743Z,3.47
2023-05-12T14:41:37.240Z,3.22
2023-05-12T14:44:05.854Z,3.53
2023-05-12T14:46:36.046Z,3.30
2023-05-12T14:49:10.556Z,3.03
2023-05-12T14:51:39.230Z,3.17
2023-05-12T14:54:18.392Z,3.50
2023-05-12T14:56:53.264Z,3.20
2023-05-12T14:59:21.896Z,3.20
2023-05-12T15:01:51.982Z,2.80
2023-05-12T15:04:20.621Z,3.00
2023-05-12T15:06:49.069Z,3.30
2023-05-12T15:09:17.575Z,3.33
2023-05-12T15:11:46.595Z,2.92
2023-05-12T15:14:15.073Z,3.33
2023-05-12T15:16:43.688Z,2.90
2023-05-12T15:19:14.226Z,3.30
2023-05-12T15:21:42.836Z,4.63
2023-05-12T15:24:11.431Z,3.20
2023-05-12T15:26:40.552Z,3.20
2023-05-12T15:29:09.196Z,3.20
2023-05-12T15:31:37.742Z,3.20
2023-05-12T15:34:06.415Z,3.00
2023-05-12T15:36:36.271Z,3.25
2023-05-12T15:39:05.175Z,3.03
2023-05-12T15:41:33.780Z,3.50
2023-05-12T15:44:02.240Z,3.22
2023-05-12T15:46:31.065Z,3.40
2023-05-12T15:48:59.678Z,3.25
2023-05-12T15:51:28.507Z,3.03
2023-05-12T15:53:58.491Z,3.58
2023-05-12T15:56:27.157Z,3.30
2023-05-12T15:58:56.773Z,3.63
2023-05-12T16:01:25.259Z,3.30
2023-05-12T16:03:54.703Z,3.97
2023-05-12T16:06:23.314Z,3.58
2023-05-12T16:08:52.448Z,3.20
2023-05-12T16:11:22.501Z,3.75
2023-05-12T16:13:51.074Z,3.63
2023-05-12T16:16:19.601Z,3.60
2023-05-12T16:18:48.251Z,3.30
2023-05-12T16:21:16.723Z,3.50
2023-05-12T16:23:45.176Z,3.40
2023-05-12T16:26:13.724Z,3.38
2023-05-12T16:28:43.780Z,2.90
2023-05-12T16:31:14.063Z,3.15
2023-05-12T16:33:42.600Z,3.40
2023-05-12T16:36:11.444Z,3.50
2023-05-12T16:38:39.898Z,3.50
2023-05-12T16:41:08.501Z,3.22
2023-05-12T16:43:37.929Z,3.13
2023-05-12T16:46:07.860Z,3.22
2023-05-12T16:48:36.479Z,3.38
2023-05-12T16:51:05.458Z,3.40
2023-05-12T16:53:33.947Z,3.22
2023-05-12T16:56:02.778Z,3.50
2023-05-12T16:58:32.266Z,3.30
2023-05-12T17:01:01.241Z,3.30
2023-05-12T17:03:31.772Z,3.25
2023-05-12T17:06:00.313Z,3.20
2023-05-12T17:08:28.934Z,3.22
2023-05-12T17:10:57.398Z,3.38
2023-05-12T17:13:25.865Z,3.53
2023-05-12T17:15:54.808Z,3.40
2023-05-12T17:18:24.797Z,3.67
2023-05-12T17:20:54.840Z,3.40
2023-05-12T17:23:23.406Z,3.50
2023-05-12T17:25:51.964Z,3.78
2023-05-12T17:28:21.129Z,3.55
2023-05-12T17:30:50.196Z,3.35
2023-05-12T17:33:18.783Z,3.42
2023-05-12T17:35:59.545Z,3.30
2023-05-12T17:38:37.384Z,3.33
2023-05-12T17:41:06.355Z,3.38
2023-05-12T17:43:34.830Z,3.47
2023-05-12T17:46:03.748Z,3.28
2023-05-12T17:48:33.506Z,3.30
2023-05-12T17:51:03.279Z,3.28
2023-05-12T17:53:32.313Z,3.33
2023-05-12T17:56:02.604Z,3.10
2023-05-12T17:58:31.203Z,3.40
2023-05-12T18:00:59.950Z,2.92
2023-05-12T18:03:28.591Z,3.40
2023-05-12T18:05:57.077Z,3.00
2023-05-12T18:08:27.232Z,2.88
2023-05-12T18:10:55.762Z,3.08
2023-05-12T18:13:25.611Z,3.25
2023-05-12T18:15:54.128Z,3.10
2023-05-12T18:18:22.876Z,2.90
2023-05-12T18:20:51.426Z,3.10
2023-05-12T18:23:20.004Z,3.13
2023-05-12T18:25:48.467Z,3.10
2023-05-12T18:28:16.950Z,3.40
2023-05-12T18:30:47.002Z,3.40
2023-05-12T18:33:15.566Z,3.08
2023-05-12T18:35:44.031Z,2.90
2023-05-12T18:38:12.691Z,3.33
2023-05-12T18:40:41.173Z,3.28
2023-05-12T18:43:09.634Z,3.65
2023-05-12T18:45:38.285Z,3.15
2023-05-12T18:48:08.491Z,3.58
2023-05-12T18:50:37.134Z,3.40
2023-05-12T18:53:05.760Z,3.40
2023-05-12T18:55:34.223Z,3.00
2023-05-12T18:58:02.680Z,3.37
2023-05-12T19:00:33.512Z,3.30
2023-05-12T19:03:02.952Z,3.20
2023-05-12T19:05:32.962Z,3.47
2023-05-12T19:08:01.986Z,3.40
2023-05-12T19:10:30.844Z,3.23
2023-05-12T19:12:59.288Z,3.20
2023-05-12T19:15:27.887Z,3.40
2023-05-12T19:17:56.628Z,3.30
2023-05-12T19:20:26.203Z,3.30
2023-05-12T19:22:56.073Z,3.10
2023-05-12T19:25:24.925Z,3.40
2023-05-12T19:27:53.688Z,3.33
2023-05-12T19:30:22.582Z,3.40
2023-05-12T19:32:51.114Z,3.37
2023-05-12T19:35:19.912Z,3.50
2023-05-12T19:37:48.559Z,3.20
2023-05-12T19:40:18.428Z,3.23
2023-05-12T19:42:47.008Z,3.57
2023-05-12T19:45:15.618Z,3.40
2023-05-12T19:47:44.132Z,3.50
2023-05-12T19:50:12.769Z,3.23
2023-05-12T19:52:41.504Z,3.27
2023-05-12T19:55:10.381Z,3.63
2023-05-12T19:57:40.379Z,3.30
2023-05-12T20:00:09.426Z,3.63
2023-05-12T20:02:38.440Z,3.47
2023-05-12T20:05:07.499Z,3.40
2023-05-12T20:07:35.970Z,3.87
2023-05-12T20:10:04.606Z,3.23
2023-05-12T20:12:34.260Z,3.43
2023-05-12T20:15:04.107Z,3.67
2023-05-12T20:17:32.628Z,3.57
2023-05-12T20:20:01.382Z,3.43
2023-05-12T20:22:29.873Z,3.53
2023-05-12T20:25:04.574Z,3.70
2023-05-12T20:27:33.190Z,4.13
2023-05-12T20:30:01.681Z,3.60
2023-05-12T20:32:32.079Z,3.43
2023-05-12T20:35:00.770Z,3.07
2023-05-12T20:37:29.349Z,3.47
2023-05-12T20:39:57.794Z,3.77
2023-05-12T20:42:26.300Z,3.40
2023-05-12T20:44:55.323Z,3.50
2023-05-12T20:47:26.717Z,4.07
2023-05-12T20:50:00.846Z,3.87
2023-05-12T20:52:29.649Z,4.03
2023-05-12T20:54:58.965Z,3.37
2023-05-12T20:57:28.188Z,3.40
2023-05-12T20:59:57.586Z,3.70
2023-05-12T21:02:27.082Z,3.70
2023-05-12T21:04:55.836Z,3.77
2023-05-12T21:07:25.809Z,3.83
2023-05-12T21:09:54.310Z,3.67
2023-05-12T21:12:22.857Z,3.60
2023-05-12T21:14:51.432Z,4.20
2023-05-12T21:17:20.087Z,3.97
2023-05-12T21:19:48.605Z,3.93
2023-05-12T21:22:17.732Z,4.30
2023-05-12T21:24:48.797Z,4.73
2023-05-12T21:27:18.461Z,4.40
2023-05-12T21:29:46.980Z,4.23
2023-05-12T21:32:16.915Z,4.83
2023-05-12T21:34:45.993Z,4.57
2023-05-12T21:37:14.448Z,4.63
2023-05-12T21:39:42.921Z,5.07
2023-05-12T21:42:12.845Z,4.30
2023-05-12T21:44:41.296Z,4.50
2023-05-12T21:47:09.765Z,5.17
2023-05-12T21:49:38.308Z,4.60
2023-05-12T21:52:07.097Z,5.40
2023-05-12T21:54:35.560Z,4.70
2023-05-12T21:57:04.233Z,4.63
2023-05-12T21:59:34.150Z,4.73
2023-05-12T22:02:02.708Z,4.93
2023-05-12T22:04:31.359Z,4.33
2023-05-12T22:06:59.882Z,5.37
2023-05-12T22:09:30.405Z,4.67
2023-05-12T22:12:00.004Z,4.93
2023-05-12T22:14:28.705Z,4.37
2023-05-12T22:16:58.699Z,4.40
2023-05-12T22:19:27.593Z,4.73
2023-05-12T22:21:57.093Z,4.77
2023-05-12T22:24:25.575Z,4.50
2023-05-12T22:26:54.222Z,3.90
2023-05-12T22:29:22.685Z,4.43
2023-05-12T22:31:51.344Z,4.37
2023-05-12T22:34:21.385Z,4.27
2023-05-12T22:36:49.830Z,4.70
2023-05-12T22:39:19.722Z,4.60
2023-05-12T22:41:48.357Z,5.23
2023-05-12T22:44:17.020Z,5.10
2023-05-12T22:46:45.930Z,5.13
2023-05-12T22:49:14.494Z,4.70
2023-05-12T22:51:44.367Z,4.70
2023-05-12T22:54:12.839Z,5.13
2023-05-12T22:56:41.493Z,5.23
2023-05-12T22:59:09.954Z,5.20
2023-05-12T23:01:38.408Z,5.10
2023-05-12T23:04:07.036Z,4.40
2023-05-12T23:06:35.580Z,4.40
2023-05-12T23:09:07.842Z,4.70
2023-05-12T23:11:36.452Z,4.27
2023-05-12T23:14:06.252Z,4.63
2023-05-12T23:16:34.782Z,4.57
2023-05-12T23:19:03.919Z,4.50
2023-05-12T23:21:32.879Z,4.47
2023-05-12T23:24:01.349Z,4.57
2023-05-12T23:26:31.550Z,4.60
2023-05-12T23:29:00.465Z,4.17
2023-05-12T23:31:29.044Z,4.40
2023-05-12T23:33:57.855Z,4.33
2023-05-12T23:36:28.365Z,4.57
2023-05-12T23:38:56.823Z,4.80
2023-05-12T23:41:26.066Z,4.73
2023-05-12T23:43:55.923Z,5.10
2023-05-12T23:46:24.412Z,5.60
2023-05-12T23:48:53.242Z,5.37
2023-05-12T23:51:21.695Z,5.70
2023-05-12T23:53:50.185Z,5.50
2023-05-12T23:56:18.774Z,5.43
2023-05-12T23:58:47.973Z,5.10
